createdAt,value
2023-02-27T00:00:41.510Z,0.88
2023-02-27T00:03:08.156Z,0.80
2023-02-27T00:05:34.749Z,0.88
2023-02-27T00:08:01.465Z,0.70
2023-02-27T00:10:28.030Z,0.55
2023-02-27T00:12:54.590Z,0.60
2023-02-27T00:15:21.358Z,1.13
2023-02-27T00:17:47.987Z,0.60
2023-02-27T00:20:16.378Z,0.82
2023-02-27T00:22:43.530Z,0.95
2023-02-27T00:25:10.894Z,0.82
2023-02-27T00:27:37.764Z,1.10
2023-02-27T00:30:09.972Z,2.05
2023-02-27T00:32:36.857Z,0.80
2023-02-27T00:35:05.210Z,0.60
2023-02-27T00:37:32.218Z,0.85
2023-02-27T00:39:58.841Z,0.65
2023-02-27T00:42:25.531Z,0.70
2023-02-27T00:44:52.129Z,0.85
2023-02-27T00:47:18.738Z,0.40
2023-02-27T00:49:45.326Z,0.70
2023-02-27T00:52:11.969Z,0.60
2023-02-27T00:54:38.554Z,0.50
2023-02-27T00:57:05.166Z,0.60
2023-02-27T00:59:31.775Z,0.77
2023-02-27T01:01:58.479Z,0.52
2023-02-27T01:04:25.405Z,0.50
2023-02-27T01:06:52.016Z,0.85
2023-02-27T01:09:18.614Z,0.63
2023-02-27T01:11:45.248Z,0.88
2023-02-27T01:14:11.938Z,0.60
2023-02-27T01:16:38.558Z,0.95
2023-02-27T01:19:05.183Z,1.10
2023-02-27T01:21:31.790Z,1.20
2023-02-27T01:23:58.381Z,0.77
2023-02-27T01:26:25.426Z,0.68
2023-02-27T01:28:52.117Z,0.50
2023-02-27T01:31:18.758Z,0.70
2023-02-27T01:33:45.443Z,0.98
2023-02-27T01:36:12.003Z,0.70
2023-02-27T01:38:38.582Z,0.65
2023-02-27T01:41:07.296Z,0.45
2023-02-27T01:43:34.529Z,0.55
2023-02-27T01:46:01.285Z,0.47
2023-02-27T01:48:33.748Z,0.50
2023-02-27T01:51:20.351Z,0.63
2023-02-27T01:53:48.766Z,0.50
2023-02-27T01:56:17.721Z,0.50
2023-02-27T01:58:46.112Z,0.80
2023-02-27T02:01:12.792Z,0.50
2023-02-27T02:03:44.026Z,1.02
2023-02-27T02:06:11.503Z,0.60
2023-02-27T02:08:46.803Z,0.63
2023-02-27T02:11:15.796Z,0.50
2023-02-27T02:13:42.845Z,0.35
2023-02-27T02:16:43.881Z,0.90
2023-02-27T02:19:35.129Z,0.77
2023-02-27T02:22:32.519Z,0.50
2023-02-27T02:25:26.095Z,0.70
2023-02-27T02:27:55.216Z,0.50
2023-02-27T02:30:48.775Z,0.93
2023-02-27T02:33:52.889Z,0.55
2023-02-27T02:36:19.420Z,0.63
2023-02-27T02:38:45.992Z,0.57
2023-02-27T02:41:23.204Z,0.40
2023-02-27T02:44:03.027Z,0.60
2023-02-27T02:47:00.496Z,0.77
2023-02-27T02:49:36.377Z,0.50
2023-02-27T02:52:09.433Z,0.52
2023-02-27T02:54:49.222Z,0.57
2023-02-27T02:57:21.378Z,0.40
2023-02-27T02:59:55.431Z,0.70
2023-02-27T03:02:25.929Z,0.47
2023-02-27T03:04:57.464Z,0.80
2023-02-27T03:07:30.626Z,0.40
2023-02-27T03:10:40.460Z,0.57
2023-02-27T03:13:14.484Z,0.40
2023-02-27T03:16:04.287Z,0.50
2023-02-27T03:18:38.011Z,0.65
2023-02-27T03:21:12.242Z,0.40
2023-02-27T03:23:48.511Z,0.60
2023-02-27T03:26:19.139Z,0.57
2023-02-27T03:28:55.078Z,0.30
2023-02-27T03:31:49.387Z,0.50
2023-02-27T03:34:21.351Z,0.63
2023-02-27T03:36:53.936Z,0.45
2023-02-27T03:39:32.706Z,0.50
2023-02-27T03:41:59.328Z,0.63
2023-02-27T03:44:34.252Z,1.33
2023-02-27T03:47:00.979Z,0.75
2023-02-27T03:49:27.590Z,0.68
2023-02-27T03:51:54.475Z,0.47
2023-02-27T03:54:27.830Z,0.50
2023-02-27T03:56:58.225Z,0.57
2023-02-27T03:59:25.073Z,0.50
2023-02-27T04:01:52.381Z,0.60
2023-02-27T04:04:19.562Z,0.32
2023-02-27T04:07:16.850Z,1.10
2023-02-27T04:10:09.140Z,0.47
2023-02-27T04:13:08.472Z,0.40
2023-02-27T04:15:53.865Z,0.50
2023-02-27T04:19:11.338Z,0.77
2023-02-27T04:21:37.833Z,0.60
2023-02-27T04:24:27.433Z,0.55
2023-02-27T04:27:09.011Z,0.30
2023-02-27T04:29:55.215Z,0.70
2023-02-27T04:32:47.466Z,0.40
2023-02-27T04:35:20.881Z,0.20
2023-02-27T04:37:56.474Z,1.23
2023-02-27T04:40:46.061Z,0.47
2023-02-27T04:43:14.905Z,0.30
2023-02-27T04:45:43.082Z,0.75
2023-02-27T04:48:23.479Z,0.90
2023-02-27T04:51:13.821Z,0.30
2023-02-27T04:54:04.631Z,0.30
2023-02-27T04:56:36.513Z,0.50
2023-02-27T04:59:17.136Z,0.40
2023-02-27T05:02:08.287Z,0.45
2023-02-27T05:04:37.737Z,0.47
2023-02-27T05:07:06.730Z,0.50
2023-02-27T05:09:55.386Z,0.55
2023-02-27T05:12:27.116Z,0.45
2023-02-27T05:15:01.749Z,0.30
2023-02-27T05:17:37.643Z,0.50
2023-02-27T05:20:07.283Z,0.30
2023-02-27T05:22:42.853Z,0.47
2023-02-27T05:25:14.244Z,0.82
2023-02-27T05:27:59.268Z,0.50
2023-02-27T05:31:05.587Z,0.50
2023-02-27T05:34:12.235Z,0.60
2023-02-27T05:36:51.615Z,0.80
2023-02-27T05:39:20.762Z,0.38
2023-02-27T05:42:04.121Z,0.47
2023-02-27T05:44:35.341Z,0.82
2023-02-27T05:47:10.552Z,0.38
2023-02-27T05:49:41.537Z,0.43
2023-02-27T05:52:12.376Z,0.40
2023-02-27T05:54:47.621Z,0.30
2023-02-27T05:57:18.383Z,0.60
2023-02-27T06:00:08.665Z,0.70
2023-02-27T06:02:35.303Z,0.47
2023-02-27T06:05:02.013Z,0.90
2023-02-27T06:07:31.629Z,0.40
2023-02-27T06:09:58.456Z,0.40
2023-02-27T06:12:25.412Z,0.52
2023-02-27T06:14:52.166Z,0.40
2023-02-27T06:17:18.813Z,0.50
2023-02-27T06:19:45.465Z,0.85
2023-02-27T06:22:12.134Z,0.45
2023-02-27T06:24:38.801Z,0.50
2023-02-27T06:27:05.367Z,1.10
2023-02-27T06:29:31.946Z,0.65
2023-02-27T06:31:58.542Z,0.40
2023-02-27T06:34:25.180Z,0.55
2023-02-27T06:36:51.774Z,0.50
2023-02-27T06:39:18.360Z,0.70
2023-02-27T06:41:44.927Z,0.55
2023-02-27T06:44:11.505Z,0.50
2023-02-27T06:46:38.225Z,0.65
2023-02-27T06:49:04.854Z,0.47
2023-02-27T06:51:31.615Z,0.50
2023-02-27T06:53:58.250Z,0.32
2023-02-27T06:56:25.114Z,0.75
2023-02-27T06:58:51.817Z,0.30
2023-02-27T07:01:18.402Z,0.38
2023-02-27T07:03:45.315Z,0.38
2023-02-27T07:06:12.506Z,0.40
2023-02-27T07:08:39.150Z,0.60
2023-02-27T07:11:25.819Z,0.60
2023-02-27T07:13:52.426Z,0.47
2023-02-27T07:16:19.041Z,0.50
2023-02-27T07:18:45.627Z,0.63
2023-02-27T07:21:12.205Z,0.43
2023-02-27T07:23:38.878Z,0.30
2023-02-27T07:26:05.581Z,0.30
2023-02-27T07:28:32.221Z,0.32
2023-02-27T07:30:58.899Z,0.20
2023-02-27T07:33:25.738Z,0.32
2023-02-27T07:35:52.485Z,0.45
2023-02-27T07:38:19.284Z,0.30
2023-02-27T07:40:46.633Z,0.52
2023-02-27T07:43:13.288Z,0.32
2023-02-27T07:45:40.072Z,0.20
2023-02-27T07:48:06.917Z,0.40
2023-02-27T07:50:33.544Z,0.30
2023-02-27T07:53:00.155Z,0.38
2023-02-27T07:55:26.783Z,0.43
2023-02-27T07:57:53.372Z,0.30
2023-02-27T08:00:20.321Z,0.40
2023-02-27T08:02:47.013Z,0.20
2023-02-27T08:05:13.641Z,0.20
2023-02-27T08:07:40.208Z,0.22
2023-02-27T08:10:07.655Z,0.60
2023-02-27T08:12:34.961Z,1.00
2023-02-27T08:15:01.659Z,1.00
2023-02-27T08:17:28.268Z,0.93
2023-02-27T08:19:54.832Z,0.38
2023-02-27T08:22:21.688Z,0.63
2023-02-27T08:24:48.293Z,0.80
2023-02-27T08:27:15.064Z,2.22
2023-02-27T08:29:43.435Z,1.55
2023-02-27T08:32:10.055Z,5.22
2023-02-27T08:34:36.919Z,2.58
2023-02-27T08:37:03.887Z,1.58
2023-02-27T08:39:30.514Z,3.30
2023-02-27T08:41:57.187Z,1.80
2023-02-27T08:44:23.848Z,2.25
2023-02-27T08:46:50.511Z,3.75
2023-02-27T08:49:19.043Z,3.05
2023-02-27T08:51:46.584Z,2.55
2023-02-27T08:54:14.025Z,2.45
2023-02-27T08:56:40.623Z,2.53
2023-02-27T08:59:07.315Z,2.58
2023-02-27T09:01:34.727Z,2.28
2023-02-27T09:04:02.719Z,2.40
2023-02-27T09:06:30.310Z,3.40
2023-02-27T09:08:58.319Z,2.22
2023-02-27T09:11:25.481Z,2.75
2023-02-27T09:13:52.948Z,3.22
2023-02-27T09:16:20.603Z,2.60
2023-02-27T09:18:47.291Z,2.50
2023-02-27T09:21:14.093Z,1.83
2023-02-27T09:23:41.326Z,4.60
2023-02-27T09:26:09.490Z,2.38
2023-02-27T09:28:37.223Z,2.22
2023-02-27T09:31:06.022Z,2.40
2023-02-27T09:33:34.031Z,2.65
2023-02-27T09:36:00.974Z,3.75
2023-02-27T09:38:27.669Z,5.22
2023-02-27T09:40:59.429Z,6.15
2023-02-27T09:43:34.328Z,4.90
2023-02-27T09:46:01.911Z,4.50
2023-02-27T09:48:38.821Z,3.17
2023-02-27T09:51:05.401Z,3.17
2023-02-27T09:53:48.936Z,2.58
2023-02-27T09:56:31.648Z,4.10
2023-02-27T09:59:26.713Z,2.72
2023-02-27T10:02:19.692Z,2.42
2023-02-27T10:04:54.215Z,2.97
2023-02-27T10:07:32.788Z,3.90
2023-02-27T10:10:11.262Z,3.13
2023-02-27T10:13:02.288Z,3.03
2023-02-27T10:15:32.578Z,3.42
2023-02-27T10:18:30.411Z,2.95
2023-02-27T10:21:03.728Z,3.03
2023-02-27T10:23:49.831Z,4.13
2023-02-27T10:26:21.875Z,2.63
2023-02-27T10:28:48.630Z,2.30
2023-02-27T10:31:21.983Z,2.17
2023-02-27T10:33:48.793Z,2.55
2023-02-27T10:36:32.160Z,2.65
2023-02-27T10:39:10.766Z,2.58
2023-02-27T10:41:38.100Z,2.38
2023-02-27T10:44:05.061Z,1.95
2023-02-27T10:46:34.340Z,1.75
2023-02-27T10:49:02.643Z,1.95
2023-02-27T10:51:31.887Z,2.95
2023-02-27T10:54:25.400Z,2.22
2023-02-27T10:57:00.511Z,2.63
2023-02-27T10:59:36.375Z,1.65
2023-02-27T11:02:21.534Z,1.77
2023-02-27T11:04:54.014Z,2.13
2023-02-27T11:07:34.088Z,2.40
2023-02-27T11:10:12.301Z,2.22
2023-02-27T11:12:40.474Z,2.13
2023-02-27T11:15:16.865Z,3.33
2023-02-27T11:17:43.924Z,1.95
2023-02-27T11:20:36.035Z,2.08
2023-02-27T11:23:10.549Z,1.88
2023-02-27T11:25:37.142Z,2.35
2023-02-27T11:28:26.630Z,2.38
2023-02-27T11:31:05.974Z,1.52
2023-02-27T11:33:36.400Z,2.00
2023-02-27T11:36:03.779Z,2.08
2023-02-27T11:38:30.638Z,1.23
2023-02-27T11:40:58.075Z,2.75
2023-02-27T11:43:30.733Z,3.08
2023-02-27T11:46:13.374Z,1.00
2023-02-27T11:49:07.826Z,1.65
2023-02-27T11:51:49.373Z,1.70
2023-02-27T11:54:32.399Z,1.35
2023-02-27T11:57:05.103Z,1.67
2023-02-27T12:00:06.678Z,2.10
2023-02-27T12:02:46.693Z,1.90
2023-02-27T12:05:30.675Z,1.70
2023-02-27T12:08:07.697Z,2.35
2023-02-27T12:11:13.190Z,2.00
2023-02-27T12:13:43.111Z,1.80
2023-02-27T12:16:19.903Z,3.33
2023-02-27T12:19:08.481Z,1.17
2023-02-27T12:21:40.149Z,1.85
2023-02-27T12:24:26.107Z,1.15
2023-02-27T12:27:09.267Z,2.22
2023-02-27T12:29:42.982Z,2.28
2023-02-27T12:32:26.011Z,1.40
2023-02-27T12:35:02.683Z,2.42
2023-02-27T12:37:30.038Z,1.25
2023-02-27T12:40:00.026Z,1.75
2023-02-27T12:42:46.100Z,1.02
2023-02-27T12:45:24.410Z,1.20
2023-02-27T12:48:09.078Z,0.88
2023-02-27T12:51:02.801Z,2.45
2023-02-27T12:53:35.490Z,2.25
2023-02-27T12:56:07.032Z,1.37
2023-02-27T12:58:33.536Z,1.25
2023-02-27T13:01:29.315Z,1.55
2023-02-27T13:04:28.150Z,1.02
2023-02-27T13:07:01.157Z,1.88
2023-02-27T13:09:56.112Z,1.92
2023-02-27T13:12:30.204Z,1.83
2023-02-27T13:15:04.405Z,2.92
2023-02-27T13:17:43.562Z,1.60
2023-02-27T13:20:22.000Z,2.22
2023-02-27T13:22:50.594Z,1.42
2023-02-27T13:25:22.707Z,1.23
2023-02-27T13:27:52.474Z,1.45
2023-02-27T13:30:28.044Z,1.65
2023-02-27T13:33:24.273Z,1.10
2023-02-27T13:36:02.370Z,1.30
2023-02-27T13:38:45.402Z,2.33
2023-02-27T13:41:36.222Z,1.23
2023-02-27T13:44:21.024Z,0.80
2023-02-27T13:46:47.695Z,3.63
2023-02-27T13:49:29.700Z,0.93
2023-02-27T13:51:59.686Z,1.50
2023-02-27T13:54:34.610Z,2.10
2023-02-27T13:57:19.378Z,1.23
2023-02-27T13:59:53.195Z,1.20
2023-02-27T14:02:59.256Z,1.08
2023-02-27T14:05:39.199Z,2.33
2023-02-27T14:08:08.127Z,1.23
2023-02-27T14:10:37.136Z,2.22
2023-02-27T14:13:04.448Z,1.85
2023-02-27T14:15:30.967Z,1.63
2023-02-27T14:18:12.365Z,1.58
2023-02-27T14:20:40.663Z,0.85
2023-02-27T14:23:16.041Z,1.27
2023-02-27T14:25:48.160Z,1.23
2023-02-27T14:28:30.895Z,1.30
2023-02-27T14:31:33.220Z,1.00
2023-02-27T14:34:05.351Z,1.67
2023-02-27T14:37:00.017Z,2.20
2023-02-27T14:39:30.601Z,1.27
2023-02-27T14:42:27.014Z,0.65
2023-02-27T14:44:53.966Z,1.15
2023-02-27T14:47:28.269Z,1.13
2023-02-27T14:49:56.219Z,2.00
2023-02-27T14:52:24.820Z,1.08
2023-02-27T14:54:52.126Z,1.13
2023-02-27T14:57:21.945Z,1.85
2023-02-27T14:59:51.554Z,1.38
2023-02-27T15:02:26.847Z,1.13
2023-02-27T15:05:15.748Z,0.73
2023-02-27T15:07:46.306Z,1.30
2023-02-27T15:10:24.088Z,1.88
2023-02-27T15:12:52.401Z,1.45
2023-02-27T15:15:21.071Z,1.23
2023-02-27T15:17:48.024Z,1.38
2023-02-27T15:20:23.731Z,1.40
2023-02-27T15:22:50.914Z,1.65
2023-02-27T15:25:33.927Z,1.25
2023-02-27T15:28:38.864Z,1.17
2023-02-27T15:31:07.578Z,1.70
2023-02-27T15:33:34.305Z,0.50
2023-02-27T15:36:01.455Z,0.82
2023-02-27T15:38:31.088Z,1.83
2023-02-27T15:40:58.929Z,1.90
2023-02-27T15:43:26.313Z,1.08
2023-02-27T15:45:54.590Z,1.73
2023-02-27T15:48:21.812Z,1.67
2023-02-27T15:50:59.327Z,1.02
2023-02-27T15:53:27.878Z,1.02
2023-02-27T15:55:57.629Z,1.08
2023-02-27T15:58:29.691Z,0.60
2023-02-27T16:01:06.458Z,1.75
2023-02-27T16:03:36.518Z,1.30
2023-02-27T16:06:08.038Z,1.48
2023-02-27T16:08:34.686Z,0.80
2023-02-27T16:11:01.260Z,0.50
2023-02-27T16:13:27.818Z,1.65
2023-02-27T16:16:05.528Z,1.27
2023-02-27T16:18:47.280Z,1.17
2023-02-27T16:21:18.749Z,0.80
2023-02-27T16:23:46.064Z,1.35
2023-02-27T16:26:25.174Z,0.75
2023-02-27T16:28:51.707Z,1.02
2023-02-27T16:31:32.138Z,1.05
2023-02-27T16:34:01.621Z,0.75
2023-02-27T16:36:32.553Z,3.28
2023-02-27T16:38:59.155Z,1.17
2023-02-27T16:41:26.028Z,1.10
2023-02-27T16:43:53.421Z,1.65
2023-02-27T16:46:20.618Z,0.60
2023-02-27T16:48:52.219Z,1.77
2023-02-27T16:51:23.212Z,1.75
2023-02-27T16:53:51.253Z,1.35
2023-02-27T16:56:23.689Z,1.63
2023-02-27T16:58:52.856Z,1.25
2023-02-27T17:01:19.943Z,0.77
2023-02-27T17:03:46.963Z,1.58
2023-02-27T17:06:14.906Z,1.15
2023-02-27T17:08:43.440Z,1.25
2023-02-27T17:11:10.422Z,1.33
2023-02-27T17:13:37.538Z,1.17
2023-02-27T17:16:05.205Z,1.98
2023-02-27T17:18:32.106Z,1.48
2023-02-27T17:21:03.877Z,1.42
2023-02-27T17:23:30.462Z,0.63
2023-02-27T17:25:57.175Z,1.25
2023-02-27T17:28:24.117Z,2.10
2023-02-27T17:30:50.879Z,1.90
2023-02-27T17:33:18.025Z,1.33
2023-02-27T17:35:44.706Z,1.20
2023-02-27T17:38:11.366Z,0.85
2023-02-27T17:40:39.359Z,1.10
2023-02-27T17:43:06.199Z,1.17
2023-02-27T17:45:32.800Z,1.08
2023-02-27T17:47:59.525Z,1.15
2023-02-27T17:50:26.165Z,1.23
2023-02-27T17:52:52.762Z,0.93
2023-02-27T17:55:19.367Z,1.55
2023-02-27T17:57:46.191Z,0.77
2023-02-27T18:00:15.952Z,1.10
2023-02-27T18:02:45.667Z,1.10
2023-02-27T18:05:12.350Z,0.98
2023-02-27T18:07:38.957Z,1.63
2023-02-27T18:10:06.889Z,0.90
2023-02-27T18:12:33.563Z,1.92
2023-02-27T18:15:00.734Z,1.27
2023-02-27T18:17:27.734Z,1.60
2023-02-27T18:19:54.537Z,0.43
2023-02-27T18:22:22.132Z,0.73
2023-02-27T18:24:49.308Z,1.00
2023-02-27T18:27:16.098Z,1.15
2023-02-27T18:29:43.799Z,0.57
2023-02-27T18:32:10.830Z,1.98
2023-02-27T18:34:39.685Z,1.00
2023-02-27T18:37:06.495Z,0.77
2023-02-27T18:39:33.132Z,0.70
2023-02-27T18:41:59.869Z,1.13
2023-02-27T18:44:26.546Z,0.32
2023-02-27T18:46:53.156Z,1.15
2023-02-27T18:49:19.773Z,0.77
2023-02-27T18:51:46.482Z,0.73
2023-02-27T18:54:14.098Z,1.35
2023-02-27T18:56:40.765Z,0.40
2023-02-27T18:59:08.409Z,0.82
2023-02-27T19:01:36.917Z,0.68
2023-02-27T19:04:06.255Z,1.25
2023-02-27T19:06:35.357Z,0.90
2023-02-27T19:09:04.722Z,0.52
2023-02-27T19:11:35.489Z,0.60
2023-02-27T19:14:04.204Z,0.65
2023-02-27T19:16:31.562Z,1.40
2023-02-27T19:18:59.385Z,0.80
2023-02-27T19:21:26.821Z,0.40
2023-02-27T19:23:53.603Z,0.95
2023-02-27T19:26:20.655Z,0.60
2023-02-27T19:28:55.612Z,0.30
2023-02-27T19:31:23.889Z,0.40
2023-02-27T19:33:50.899Z,1.38
2023-02-27T19:36:18.748Z,0.60
2023-02-27T19:38:45.333Z,0.80
2023-02-27T19:41:14.463Z,1.20
2023-02-27T19:43:41.462Z,0.45
2023-02-27T19:46:11.056Z,0.73
2023-02-27T19:48:38.447Z,0.35
2023-02-27T19:51:07.077Z,0.50
2023-02-27T19:53:35.685Z,0.65
2023-02-27T19:56:07.735Z,0.93
2023-02-27T19:58:35.982Z,0.82
2023-02-27T20:01:03.751Z,0.65
2023-02-27T20:03:30.558Z,1.00
2023-02-27T20:05:57.376Z,0.45
2023-02-27T20:08:28.557Z,1.17
2023-02-27T20:10:58.300Z,1.58
2023-02-27T20:13:25.342Z,0.90
2023-02-27T20:16:03.244Z,0.40
2023-02-27T20:18:31.105Z,0.50
2023-02-27T20:21:07.867Z,0.52
2023-02-27T20:23:36.618Z,1.08
2023-02-27T20:26:17.089Z,0.28
2023-02-27T20:28:44.150Z,0.82
2023-02-27T20:31:12.621Z,0.73
2023-02-27T20:33:40.234Z,0.35
2023-02-27T20:36:11.095Z,0.65
2023-02-27T20:38:41.996Z,0.60
2023-02-27T20:41:14.292Z,0.32
2023-02-27T20:43:43.227Z,0.43
2023-02-27T20:46:15.314Z,0.68
2023-02-27T20:48:42.116Z,0.75
2023-02-27T20:51:16.983Z,0.38
2023-02-27T20:53:46.919Z,0.30
2023-02-27T20:56:14.078Z,0.88
2023-02-27T20:58:40.874Z,1.23
2023-02-27T21:01:11.715Z,0.70
2023-02-27T21:03:39.816Z,0.98
2023-02-27T21:06:09.287Z,0.82
2023-02-27T21:08:37.195Z,0.30
2023-02-27T21:11:12.949Z,0.88
2023-02-27T21:13:39.733Z,1.13
2023-02-27T21:16:09.387Z,0.43
2023-02-27T21:18:37.369Z,0.20
2023-02-27T21:21:12.693Z,0.20
2023-02-27T21:23:42.053Z,0.60
2023-02-27T21:26:23.727Z,0.55
2023-02-27T21:28:52.203Z,0.52
2023-02-27T21:31:20.528Z,0.30
2023-02-27T21:33:47.547Z,0.70
2023-02-27T21:36:14.243Z,0.50
2023-02-27T21:38:40.959Z,0.75
2023-02-27T21:41:11.436Z,0.70
2023-02-27T21:43:41.852Z,0.50
2023-02-27T21:46:12.534Z,0.40
2023-02-27T21:48:39.781Z,0.45
2023-02-27T21:51:07.372Z,0.32
2023-02-27T21:53:34.461Z,0.82
2023-02-27T21:56:10.957Z,0.55
2023-02-27T21:58:38.457Z,0.32
2023-02-27T22:01:16.160Z,0.20
2023-02-27T22:03:44.056Z,0.77
2023-02-27T22:06:11.852Z,0.85
2023-02-27T22:08:38.882Z,0.55
2023-02-27T22:11:05.641Z,0.30
2023-02-27T22:13:32.683Z,0.20
2023-02-27T22:16:07.236Z,0.30
2023-02-27T22:18:34.640Z,0.55
2023-02-27T22:21:01.977Z,1.00
2023-02-27T22:23:28.914Z,0.45
2023-02-27T22:26:02.738Z,0.70
2023-02-27T22:28:30.340Z,0.55
2023-02-27T22:31:18.563Z,0.52
2023-02-27T22:33:47.065Z,0.30
2023-02-27T22:36:16.386Z,0.50
2023-02-27T22:38:43.261Z,0.57
2023-02-27T22:41:19.098Z,0.57
2023-02-27T22:43:46.504Z,0.35
2023-02-27T22:46:16.709Z,0.75
2023-02-27T22:48:43.841Z,0.80
2023-02-27T22:51:14.331Z,0.55
2023-02-27T22:53:42.670Z,0.60
2023-02-27T22:56:12.901Z,0.70
2023-02-27T22:58:40.888Z,0.47
2023-02-27T23:01:24.154Z,0.25
2023-02-27T23:03:52.932Z,0.40
2023-02-27T23:06:22.735Z,0.90
2023-02-27T23:08:49.533Z,0.40
2023-02-27T23:11:17.595Z,0.30
2023-02-27T23:13:44.235Z,1.58
2023-02-27T23:16:14.025Z,0.52
2023-02-27T23:18:51.806Z,1.27
2023-02-27T23:21:21.019Z,0.15
2023-02-27T23:23:47.857Z,0.45
2023-02-27T23:26:14.434Z,0.20
2023-02-27T23:28:41.446Z,0.25
2023-02-27T23:31:08.900Z,0.32
2023-02-27T23:33:35.870Z,0.45
2023-02-27T23:36:03.015Z,0.25
2023-02-27T23:38:29.752Z,0.32
2023-02-27T23:40:56.347Z,0.38
2023-02-27T23:43:23.072Z,0.65
2023-02-27T23:45:49.676Z,0.20
2023-02-27T23:48:16.356Z,0.20
2023-02-27T23:50:44.202Z,0.32
2023-02-27T23:53:13.303Z,0.35
2023-02-27T23:55:40.732Z,0.65
2023-02-27T23:58:09.571Z,0.50
